Tetlin, Alaska
Current Conditions -  °F | °C
As of 5:53 AM on Wednesday 22 Oct 2014 (Local Time) from PAOR Reporting Station
Broken Clouds Broken Clouds  
Wind Chill: 18°   Ceiling: 6000
Heat Index: 26°   Visibility: 10mi
Dew Point: 23°   Wind: 7mph
Humidity: 88%   Direction: 320°NW
Pressure: 29.36"   Gusts: NA
Location:  63.13°N, 142.52°W
Report Text: PAOR 221353Z 32006KT 10SM FEW047 BKN060 BKN070 M03/M05 A2936 RMK AO2 SLP974 T10331050
Loading
Personal Weather Stations






























Interactive Weather Map
Tropical Storm Tracking
New forecast layout! Learn more

10-Day Weather Forecast

Advertisements
Track Severe Weather on mobile